Etusivu
METAR-TAF:

METAR-TAF

Lentoasemat :

Haugesund, Norja

Leveyspiiri: 59-21N, Pituuspiiri: 005-13E, korkeus merenpinnasta: 2 m

Tämänhetkinen sää

Tämä raportti tehtiin 33 minuuttia sitten, kello 23.50 UTC
Tuuli 3 kn koillisesta
Lämpötila 14°C
Kosteus 82%
Ilmanpaine 1005 hPa
Näkyvyys 10 km tai enemmän

METAR: ENHD 282350Z AUTO 05003KT 9999 FEW100/// 14/11 Q1005

Aika: 02:23 (00:23 UTC)

Sääennuste

Tämä raportti tehtiin 7 tuntia ja 23 minuuttia sitten, kello 17.00 UTC
Ennuste voimassa 28. päivästä klo 18 UTC - 28. päivään klo 21 UTC
Tuuli 15 kn pohjoisesta
Näkyvyys 10 km tai enemmän
ei pilviä alle 1500 m:ssä eikä cumulonimbus-pilviä
Tulossa
28. päivästä klo 18 UTC - 28. päivään klo 20 UTC
Tuuli 5 kn pohjoisesta

TAF: ENHD 281700Z 2818/2821 35015KT CAVOK BECMG 2818/2820 35005KT

Säähavainnot ja -ennusteet yli 4000 lentoasemalta (METAR- ja TAF-raportit).

Käytössä olevat sääasemat on merkitty karttaan keltaisilla ja punaisilla pisteillä.

Aseta hiiri pisteen päälle nähdäksesi sääaseman nimen.

Klikkaa sitten nähdäksesi säähavainnot ja -ennusteet.

Kartan vaihtaminen: klikkaa mustalla rastilla varustettuja vihreitä pisteitä, niin voit zoomata sisään; viivalla varustettua vihreää pistettä, niin voit zoomata ulos tai vihreitä nuolia, niin pääset viereisille kartoille.


METAR-TAF: